createdAt,value
2023-02-08T00:02:40.750Z,39.17
2023-02-08T00:08:40.875Z,45.17
2023-02-08T00:11:26.387Z,45.95
2023-02-08T00:14:12.035Z,42.80
2023-02-08T00:16:57.601Z,43.58
2023-02-08T00:19:43.300Z,42.50
2023-02-08T00:22:29.020Z,50.75
2023-02-08T00:25:14.643Z,45.70
2023-02-08T00:28:00.426Z,40.92
2023-02-08T00:30:46.389Z,44.38
2023-02-08T00:33:32.293Z,37.75
2023-02-08T00:36:17.868Z,38.92
2023-02-08T00:39:03.798Z,47.17
2023-02-08T00:41:49.641Z,38.38
2023-02-08T00:44:35.082Z,38.90
2023-02-08T00:47:20.449Z,36.13
2023-02-08T00:50:06.754Z,36.83
2023-02-08T00:52:52.085Z,31.45
2023-02-08T00:55:37.645Z,30.58
2023-02-08T00:58:36.730Z,34.13
2023-02-08T01:01:22.384Z,40.35
2023-02-08T01:04:08.221Z,31.60
2023-02-08T01:06:53.605Z,34.28
2023-02-08T01:09:39.137Z,36.88
2023-02-08T01:12:25.045Z,37.17
2023-02-08T01:15:11.059Z,29.30
2023-02-08T01:17:57.106Z,34.35
2023-02-08T01:20:42.380Z,31.27
2023-02-08T01:23:28.009Z,33.20
2023-02-08T01:26:15.484Z,30.77
2023-02-08T01:29:03.307Z,33.17
2023-02-08T01:31:49.341Z,29.25
2023-02-08T01:34:34.802Z,32.13
2023-02-08T01:37:20.339Z,30.58
2023-02-08T01:40:06.822Z,22.67
2023-02-08T01:42:52.507Z,24.92
2023-02-08T01:45:38.095Z,30.77
2023-02-08T01:48:31.776Z,30.92
2023-02-08T01:51:24.273Z,25.90
2023-02-08T01:54:12.202Z,25.85
2023-02-08T01:56:57.980Z,27.95
2023-02-08T01:59:49.816Z,26.73
2023-02-08T02:02:37.127Z,28.15
2023-02-08T02:05:28.572Z,27.95
2023-02-08T02:12:53.595Z,32.83
2023-02-08T02:15:39.703Z,30.85
2023-02-08T02:18:30.596Z,28.17
2023-02-08T02:21:19.055Z,30.95
2023-02-08T02:24:26.290Z,31.33
2023-02-08T02:27:33.080Z,32.92
2023-02-08T02:30:40.344Z,31.42
2023-02-08T02:33:39.824Z,29.95
2023-02-08T02:36:34.241Z,27.92
2023-02-08T02:39:41.270Z,27.45
2023-02-08T02:43:04.460Z,29.02
2023-02-08T02:46:07.486Z,34.55
2023-02-08T02:49:27.233Z,29.05
2023-02-08T02:52:19.580Z,32.33
2023-02-08T02:55:14.801Z,22.60
2023-02-08T02:58:02.486Z,25.02
2023-02-08T03:00:56.603Z,25.40
2023-02-08T03:03:42.134Z,25.05
2023-02-08T03:06:53.255Z,23.52
2023-02-08T03:10:03.463Z,22.05
2023-02-08T03:12:52.080Z,27.30
2023-02-08T03:15:43.973Z,26.70
2023-02-08T03:18:52.275Z,23.63
2023-02-08T03:21:53.168Z,34.90
2023-02-08T03:24:55.341Z,24.58
2023-02-08T03:28:01.859Z,21.80
2023-02-08T03:31:15.356Z,21.65
2023-02-08T03:34:13.307Z,23.77
2023-02-08T03:37:08.023Z,22.90
2023-02-08T03:40:10.461Z,24.55
2023-02-08T03:43:01.552Z,25.70
2023-02-08T03:46:05.534Z,22.98
2023-02-08T03:49:09.310Z,21.92
2023-02-08T03:51:58.031Z,18.67
2023-02-08T03:54:50.972Z,22.90
2023-02-08T03:57:43.663Z,23.67
2023-02-08T04:00:33.444Z,18.00
2023-02-08T04:03:30.537Z,19.98
2023-02-08T04:06:17.084Z,21.05
2023-02-08T04:09:02.667Z,22.98
2023-02-08T04:11:48.138Z,22.83
2023-02-08T04:14:33.684Z,22.33
2023-02-08T04:17:19.249Z,21.80
2023-02-08T04:20:05.467Z,21.38
2023-02-08T04:22:50.722Z,16.23
2023-02-08T04:25:36.258Z,21.67
2023-02-08T04:28:21.982Z,20.67
2023-02-08T04:31:07.817Z,22.08
2023-02-08T04:33:53.062Z,23.75
2023-02-08T04:36:38.590Z,24.10
2023-02-08T04:39:24.224Z,22.33
2023-02-08T04:42:09.739Z,21.17
2023-02-08T04:44:54.929Z,21.30
2023-02-08T04:47:40.331Z,20.73
2023-02-08T04:50:26.270Z,19.52
2023-02-08T04:53:11.777Z,26.58
2023-02-08T04:55:57.547Z,19.27
2023-02-08T04:58:42.725Z,25.48
2023-02-08T05:01:28.405Z,21.73
2023-02-08T05:04:14.193Z,20.67
2023-02-08T05:07:00.011Z,24.88
2023-02-08T05:09:45.574Z,20.77
2023-02-08T05:12:31.074Z,24.67
2023-02-08T05:15:16.846Z,26.60
2023-02-08T05:18:02.228Z,24.30
2023-02-08T05:20:55.827Z,23.40
2023-02-08T05:23:41.073Z,29.77
2023-02-08T05:26:26.904Z,30.73
2023-02-08T05:29:12.176Z,29.92
2023-02-08T05:31:57.634Z,23.90
2023-02-08T05:34:43.352Z,25.80
2023-02-08T05:37:28.548Z,23.25
2023-02-08T05:40:14.064Z,22.08
2023-02-08T05:42:59.457Z,27.02
2023-02-08T05:45:44.978Z,23.20
2023-02-08T05:48:32.356Z,21.67
2023-02-08T05:51:17.908Z,22.55
2023-02-08T05:54:03.553Z,27.13
2023-02-08T05:56:49.304Z,24.92
2023-02-08T05:59:35.898Z,25.48
2023-02-08T06:02:21.838Z,26.00
2023-02-08T06:05:07.768Z,25.48
2023-02-08T06:07:53.331Z,32.85
2023-02-08T06:10:39.085Z,30.60
2023-02-08T06:13:25.326Z,34.38
2023-02-08T06:16:11.088Z,35.22
2023-02-08T06:18:57.093Z,35.30
2023-02-08T06:21:42.743Z,31.75
2023-02-08T06:24:28.116Z,34.22
2023-02-08T06:27:13.607Z,38.65
2023-02-08T06:29:59.147Z,33.63
2023-02-08T06:32:44.554Z,33.08
2023-02-08T06:35:29.731Z,34.58
2023-02-08T06:38:15.590Z,35.88
2023-02-08T06:41:01.021Z,28.17
2023-02-08T06:43:46.668Z,33.90
2023-02-08T06:46:32.059Z,31.55
2023-02-08T06:49:17.651Z,38.83
2023-02-08T06:52:03.276Z,35.60
2023-02-08T06:54:49.001Z,37.10
2023-02-08T06:57:34.700Z,37.90
2023-02-08T07:00:20.229Z,39.80
2023-02-08T07:03:05.696Z,39.90
2023-02-08T07:06:04.038Z,37.05
2023-02-08T07:08:50.468Z,42.78
2023-02-08T07:11:36.197Z,39.45
2023-02-08T07:14:22.062Z,36.20
2023-02-08T07:17:08.098Z,35.53
2023-02-08T07:19:54.035Z,31.88
2023-02-08T07:22:40.617Z,31.63
2023-02-08T07:25:26.566Z,34.80
2023-02-08T07:28:12.056Z,31.88
2023-02-08T07:30:57.614Z,37.30
2023-02-08T07:33:43.884Z,41.15
2023-02-08T07:36:29.295Z,40.15
2023-02-08T07:39:15.410Z,41.90
2023-02-08T07:42:01.174Z,39.42
2023-02-08T07:44:46.690Z,39.15
2023-02-08T07:47:32.463Z,43.65
2023-02-08T07:50:18.313Z,41.08
2023-02-08T07:53:03.876Z,42.70
2023-02-08T07:55:49.924Z,37.70
2023-02-08T07:58:35.489Z,37.10
2023-02-08T08:01:22.876Z,37.90
2023-02-08T08:04:08.770Z,42.50
2023-02-08T08:06:54.837Z,41.92
2023-02-08T08:09:40.612Z,36.08
2023-02-08T08:12:26.212Z,39.60
2023-02-08T08:15:11.750Z,38.78
2023-02-08T08:17:57.321Z,32.33
2023-02-08T08:20:42.854Z,33.28
2023-02-08T08:23:29.234Z,35.92
2023-02-08T08:26:18.199Z,34.47
2023-02-08T08:29:03.757Z,33.42
2023-02-08T08:31:49.831Z,39.05
2023-02-08T08:34:35.327Z,34.42
2023-02-08T08:37:20.967Z,31.27
2023-02-08T08:40:07.490Z,38.47
2023-02-08T08:42:52.897Z,41.47
2023-02-08T08:45:38.543Z,38.22
2023-02-08T08:48:23.958Z,35.47
2023-02-08T08:51:10.065Z,32.83
2023-02-08T08:53:55.937Z,30.10
2023-02-08T08:56:41.471Z,34.35
2023-02-08T08:59:28.216Z,37.63
2023-02-08T09:02:15.593Z,30.30
2023-02-08T09:05:02.709Z,33.03
2023-02-08T09:07:48.246Z,32.33
2023-02-08T09:10:34.042Z,30.27
2023-02-08T09:13:20.126Z,32.20
2023-02-08T09:16:10.623Z,28.30
2023-02-08T09:18:56.256Z,25.02
2023-02-08T09:21:43.017Z,27.02
2023-02-08T09:24:28.713Z,24.33
2023-02-08T09:27:14.985Z,27.38
2023-02-08T09:30:00.317Z,24.48
2023-02-08T09:32:46.070Z,25.65
2023-02-08T09:35:31.659Z,26.50
2023-02-08T09:38:17.606Z,24.88
2023-02-08T09:41:11.848Z,27.90
2023-02-08T09:44:14.459Z,23.30
2023-02-08T09:47:29.704Z,24.23
2023-02-08T09:50:47.680Z,24.50
2023-02-08T09:53:37.381Z,25.67
2023-02-08T09:56:29.738Z,26.95
2023-02-08T09:59:30.090Z,26.87
2023-02-08T10:02:23.189Z,29.52
2023-02-08T10:05:21.948Z,26.92
2023-02-08T10:08:11.942Z,29.50
2023-02-08T10:11:45.137Z,35.83
2023-02-08T10:14:46.052Z,36.63
2023-02-08T10:18:06.720Z,30.13
2023-02-08T10:21:18.904Z,27.48
2023-02-08T10:24:43.306Z,28.35
2023-02-08T10:27:40.898Z,29.20
2023-02-08T10:30:37.102Z,30.60
2023-02-08T10:33:40.456Z,28.95
2023-02-08T10:36:31.597Z,27.92
2023-02-08T10:39:23.712Z,29.70
2023-02-08T10:42:19.306Z,27.15
2023-02-08T10:45:24.381Z,32.25
2023-02-08T10:48:22.191Z,30.23
2023-02-08T10:51:16.844Z,29.00
2023-02-08T10:54:03.136Z,30.38
2023-02-08T10:57:01.026Z,28.67
2023-02-08T10:59:54.427Z,28.67
2023-02-08T11:02:43.492Z,28.55
2023-02-08T11:05:37.928Z,28.58
2023-02-08T11:08:25.347Z,29.92
2023-02-08T11:11:11.072Z,29.88
2023-02-08T11:14:13.987Z,27.65
2023-02-08T11:17:00.380Z,29.80
2023-02-08T11:19:46.429Z,27.75
2023-02-08T11:22:32.011Z,22.25
2023-02-08T11:25:39.327Z,21.85
2023-02-08T11:28:30.879Z,20.50
2023-02-08T11:31:21.156Z,21.77
2023-02-08T11:34:09.443Z,21.90
2023-02-08T11:36:57.133Z,21.23
2023-02-08T11:39:49.831Z,23.90
2023-02-08T11:42:44.397Z,22.48
2023-02-08T11:45:36.136Z,20.08
2023-02-08T11:48:36.656Z,19.80
2023-02-08T11:51:32.540Z,22.30
2023-02-08T11:54:39.306Z,24.17
2023-02-08T11:57:27.949Z,23.77
2023-02-08T12:00:19.727Z,22.48
2023-02-08T12:03:27.536Z,25.95
2023-02-08T12:06:40.675Z,24.52
2023-02-08T12:10:12.002Z,20.15
2023-02-08T12:13:11.090Z,24.17
2023-02-08T12:16:15.267Z,22.00
2023-02-08T12:19:19.775Z,23.50
2023-02-08T12:22:11.404Z,22.52
2023-02-08T12:25:18.579Z,27.17
2023-02-08T12:28:21.325Z,25.42
2023-02-08T12:31:14.846Z,24.38
2023-02-08T12:34:03.084Z,21.92
2023-02-08T12:37:25.300Z,23.52
2023-02-08T12:40:49.752Z,24.75
2023-02-08T12:44:06.108Z,26.73
2023-02-08T12:47:13.578Z,26.10
2023-02-08T12:50:20.086Z,26.17
2023-02-08T12:53:31.173Z,25.38
2023-02-08T12:56:22.061Z,26.95
2023-02-08T12:59:17.858Z,26.02
2023-02-08T13:02:27.129Z,23.60
2023-02-08T13:05:22.651Z,22.65
2023-02-08T13:08:33.791Z,24.13
2023-02-08T13:11:38.885Z,24.67
2023-02-08T13:14:46.346Z,23.02
2023-02-08T13:17:41.797Z,20.20
2023-02-08T13:20:45.826Z,20.38
2023-02-08T13:23:51.763Z,22.40
2023-02-08T13:26:40.122Z,21.90
2023-02-08T13:29:28.828Z,25.80
2023-02-08T13:32:32.446Z,25.45
2023-02-08T13:35:30.616Z,22.15
2023-02-08T13:38:35.264Z,23.75
2023-02-08T13:41:25.575Z,25.83
2023-02-08T13:44:29.825Z,25.95
2023-02-08T13:47:28.644Z,33.45
2023-02-08T13:50:43.254Z,26.98
2023-02-08T13:53:38.466Z,29.42
2023-02-08T13:56:42.757Z,29.95
2023-02-08T13:59:36.184Z,31.70
2023-02-08T14:02:27.096Z,30.85
2023-02-08T14:05:31.534Z,28.08
2023-02-08T14:08:37.098Z,29.38
2023-02-08T14:11:45.594Z,28.33
2023-02-08T14:14:39.864Z,26.77
2023-02-08T14:17:29.252Z,27.92
2023-02-08T14:20:40.158Z,29.00
2023-02-08T14:23:30.294Z,31.88
2023-02-08T14:26:24.101Z,29.70
2023-02-08T14:29:23.305Z,26.83
2023-02-08T14:32:09.536Z,30.30
2023-02-08T14:35:06.634Z,28.63
2023-02-08T14:38:24.208Z,28.05
2023-02-08T14:41:09.909Z,28.63
2023-02-08T14:43:55.748Z,25.13
2023-02-08T14:46:43.817Z,27.60
2023-02-08T14:49:37.569Z,30.50
2023-02-08T14:52:25.550Z,29.10
2023-02-08T14:55:22.009Z,27.45
2023-02-08T14:58:14.955Z,26.40
2023-02-08T15:01:06.261Z,25.58
2023-02-08T15:04:00.489Z,21.80
2023-02-08T15:07:33.659Z,18.75
2023-02-08T15:10:21.707Z,18.23
2023-02-08T15:13:20.093Z,16.15
2023-02-08T15:16:11.232Z,15.23
2023-02-08T15:18:56.902Z,16.25
2023-02-08T15:21:43.004Z,19.08
2023-02-08T15:24:29.759Z,20.83
2023-02-08T15:27:24.615Z,15.68
2023-02-08T15:30:29.261Z,20.42
2023-02-08T15:33:21.260Z,19.58
2023-02-08T15:36:14.690Z,21.08
2023-02-08T15:41:59.084Z,22.02
2023-02-08T15:44:45.191Z,19.08
2023-02-08T15:47:33.884Z,23.25
2023-02-08T15:50:22.686Z,25.10
2023-02-08T15:53:15.454Z,22.98
2023-02-08T15:56:04.530Z,24.40
2023-02-08T15:58:54.798Z,24.05
2023-02-08T16:01:40.334Z,25.33
2023-02-08T16:04:26.378Z,27.10
2023-02-08T16:07:31.972Z,23.50
2023-02-08T16:11:00.990Z,27.58
2023-02-08T16:13:49.907Z,25.35
2023-02-08T16:16:38.429Z,27.63
2023-02-08T16:19:32.799Z,25.15
2023-02-08T16:22:21.690Z,24.58
2023-02-08T16:25:34.665Z,27.90
2023-02-08T16:28:32.272Z,25.10
2023-02-08T16:31:22.253Z,27.23
2023-02-08T16:34:15.061Z,29.80
2023-02-08T16:37:02.572Z,29.02
2023-02-08T16:39:51.832Z,29.85
2023-02-08T16:42:44.243Z,24.85
2023-02-08T16:45:29.850Z,25.15
2023-02-08T16:48:36.210Z,27.02
2023-02-08T16:51:29.762Z,26.42
2023-02-08T16:54:18.343Z,26.73
2023-02-08T16:57:04.290Z,26.55
2023-02-08T16:59:50.668Z,26.85
2023-02-08T17:02:36.480Z,27.95
2023-02-08T17:05:24.049Z,30.17
2023-02-08T17:08:15.795Z,29.65
2023-02-08T17:11:02.050Z,27.48
2023-02-08T17:13:47.916Z,24.52
2023-02-08T17:16:35.368Z,30.40
2023-02-08T17:19:24.572Z,29.13
2023-02-08T17:22:10.215Z,28.67
2023-02-08T17:24:55.907Z,29.65
2023-02-08T17:27:47.297Z,27.92
2023-02-08T17:30:42.141Z,35.05
2023-02-08T17:33:29.463Z,29.38
2023-02-08T17:36:16.315Z,28.20
2023-02-08T17:39:05.255Z,29.60
2023-02-08T17:41:52.153Z,30.75
2023-02-08T17:44:38.144Z,29.38
2023-02-08T17:47:24.334Z,27.83
2023-02-08T17:50:12.533Z,33.58
2023-02-08T17:52:58.571Z,25.15
2023-02-08T17:55:46.172Z,28.45
2023-02-08T17:58:32.057Z,29.92
2023-02-08T18:01:20.578Z,27.73
2023-02-08T18:04:06.729Z,31.00
2023-02-08T18:06:52.238Z,30.60
2023-02-08T18:09:39.262Z,28.60
2023-02-08T18:12:27.054Z,30.95
2023-02-08T18:15:19.974Z,36.47
2023-02-08T18:18:06.597Z,31.73
2023-02-08T18:20:52.370Z,36.55
2023-02-08T18:23:38.168Z,35.35
2023-02-08T18:26:25.317Z,34.38
2023-02-08T18:29:11.237Z,32.28
2023-02-08T18:31:57.225Z,33.25
2023-02-08T18:34:45.250Z,34.17
2023-02-08T18:37:30.840Z,38.55
2023-02-08T18:40:18.664Z,36.13
2023-02-08T18:43:04.159Z,33.20
2023-02-08T18:46:12.344Z,29.02
2023-02-08T18:48:58.024Z,30.60
2023-02-08T18:51:45.510Z,36.30
2023-02-08T18:54:33.425Z,37.88
2023-02-08T18:57:22.261Z,33.80
2023-02-08T19:00:10.880Z,35.78
2023-02-08T19:02:58.237Z,35.70
2023-02-08T19:05:44.775Z,38.50
2023-02-08T19:08:31.574Z,34.17
2023-02-08T19:11:30.220Z,39.33
2023-02-08T19:14:16.723Z,35.35
2023-02-08T19:17:06.306Z,34.70
2023-02-08T19:19:54.688Z,37.03
2023-02-08T19:22:42.486Z,32.15
2023-02-08T19:25:35.247Z,30.65
2023-02-08T19:28:36.924Z,34.55
2023-02-08T19:31:28.938Z,33.70
2023-02-08T19:34:14.956Z,32.45
2023-02-08T19:37:00.824Z,31.48
2023-02-08T19:39:47.667Z,34.13
2023-02-08T19:42:40.388Z,30.60
2023-02-08T19:45:27.876Z,27.40
2023-02-08T19:48:15.017Z,33.60
2023-02-08T19:51:03.467Z,37.63
2023-02-08T19:54:14.148Z,29.38
2023-02-08T19:57:42.627Z,31.63
2023-02-08T20:00:31.687Z,30.63
2023-02-08T20:03:21.992Z,29.90
2023-02-08T20:06:23.769Z,34.78
2023-02-08T20:09:11.159Z,30.85
2023-02-08T20:11:58.061Z,37.30
2023-02-08T20:14:44.171Z,35.05
2023-02-08T20:17:29.919Z,34.90
2023-02-08T20:20:16.672Z,31.40
2023-02-08T20:23:11.242Z,33.72
2023-02-08T20:26:07.172Z,30.90
2023-02-08T20:28:57.996Z,36.75
2023-02-08T20:31:45.278Z,36.33
2023-02-08T20:34:31.341Z,30.15
2023-02-08T20:37:21.222Z,37.08
2023-02-08T20:40:07.447Z,36.70
2023-02-08T20:42:53.256Z,28.90
2023-02-08T20:45:41.750Z,35.45
2023-02-08T20:48:27.905Z,34.42
2023-02-08T20:51:16.691Z,30.52
2023-02-08T20:54:03.620Z,31.42
2023-02-08T20:56:49.366Z,32.35
2023-02-08T20:59:35.082Z,32.75
2023-02-08T21:02:23.486Z,31.58
2023-02-08T21:05:10.542Z,37.08
2023-02-08T21:07:56.786Z,30.45
2023-02-08T21:10:43.213Z,35.40
2023-02-08T21:13:29.127Z,34.80
2023-02-08T21:16:15.159Z,37.75
2023-02-08T21:19:01.482Z,32.28
2023-02-08T21:21:51.308Z,37.63
2023-02-08T21:24:37.017Z,38.45
2023-02-08T21:27:24.317Z,36.92
2023-02-08T21:30:10.660Z,36.28
2023-02-08T21:32:56.195Z,34.97
2023-02-08T21:35:41.742Z,36.20
2023-02-08T21:38:27.298Z,33.65
2023-02-08T21:41:20.184Z,39.72
2023-02-08T21:44:08.290Z,40.88
2023-02-08T21:46:55.948Z,38.58
2023-02-08T21:50:01.076Z,37.28
2023-02-08T21:53:05.851Z,37.95
2023-02-08T21:55:54.032Z,38.03
2023-02-08T21:58:40.436Z,43.20
2023-02-08T22:01:26.518Z,34.13
2023-02-08T22:04:11.994Z,34.40
2023-02-08T22:06:57.518Z,37.50
2023-02-08T22:09:43.544Z,36.47
2023-02-08T22:12:29.766Z,34.00
2023-02-08T22:15:19.105Z,33.67
2023-02-08T22:18:06.050Z,37.88
2023-02-08T22:20:55.328Z,32.45
2023-02-08T22:23:41.318Z,34.22
2023-02-08T22:26:27.697Z,35.10
2023-02-08T22:29:14.405Z,33.53
2023-02-08T22:31:59.880Z,33.50
2023-02-08T22:34:47.057Z,37.40
2023-02-08T22:37:33.687Z,34.47
2023-02-08T22:40:19.290Z,33.55
2023-02-08T22:43:04.769Z,38.50
2023-02-08T22:45:58.630Z,38.70
2023-02-08T22:48:44.526Z,35.38
2023-02-08T22:51:30.305Z,37.05
2023-02-08T22:54:16.065Z,37.15
2023-02-08T22:57:01.755Z,37.05
2023-02-08T22:59:47.889Z,36.25
2023-02-08T23:02:35.385Z,39.20
2023-02-08T23:05:21.064Z,42.40
2023-02-08T23:08:06.674Z,44.03
2023-02-08T23:10:59.702Z,43.03
2023-02-08T23:13:44.974Z,41.15
2023-02-08T23:16:30.876Z,36.42
2023-02-08T23:19:18.452Z,43.88
2023-02-08T23:22:04.088Z,42.72
2023-02-08T23:24:49.445Z,44.13
2023-02-08T23:27:34.902Z,46.20
2023-02-08T23:30:20.300Z,46.80
2023-02-08T23:33:06.502Z,44.42
2023-02-08T23:35:52.053Z,47.13
2023-02-08T23:38:38.892Z,48.25
2023-02-08T23:41:25.074Z,48.90
2023-02-08T23:44:10.301Z,48.97
2023-02-08T23:46:56.107Z,47.53
2023-02-08T23:49:41.812Z,47.05
2023-02-08T23:52:27.164Z,48.17
2023-02-08T23:55:13.007Z,51.10
2023-02-08T23:57:58.444Z,52.30
